createdAt,value
2023-03-31T00:00:14.302Z,31.92
2023-03-31T00:02:44.706Z,31.94
2023-03-31T00:05:20.334Z,31.91
2023-03-31T00:07:51.022Z,31.92
2023-03-31T00:10:21.763Z,31.93
2023-03-31T00:12:53.095Z,31.91
2023-03-31T00:15:23.238Z,31.93
2023-03-31T00:17:54.130Z,31.93
2023-03-31T00:20:25.181Z,31.94
2023-03-31T00:22:57.004Z,31.94
2023-03-31T00:25:27.390Z,31.93
2023-03-31T00:27:57.721Z,31.93
2023-03-31T00:30:28.054Z,31.94
2023-03-31T00:32:59.330Z,31.95
2023-03-31T00:35:29.650Z,31.94
2023-03-31T00:38:00.414Z,31.95
2023-03-31T00:40:30.577Z,31.95
2023-03-31T00:43:00.881Z,31.93
2023-03-31T00:45:33.350Z,31.94
2023-03-31T00:48:12.830Z,31.93
2023-03-31T00:50:56.841Z,31.94
2023-03-31T00:53:31.724Z,31.95
2023-03-31T00:56:10.513Z,31.96
2023-03-31T00:58:46.110Z,31.96
2023-03-31T01:01:38.323Z,31.98
2023-03-31T01:04:40.681Z,31.97
2023-03-31T01:07:29.006Z,31.95
2023-03-31T01:10:03.284Z,31.97
2023-03-31T01:12:36.006Z,31.96
2023-03-31T01:15:07.021Z,31.96
2023-03-31T01:17:38.813Z,31.95
2023-03-31T01:20:33.701Z,31.96
2023-03-31T01:23:25.108Z,31.97
2023-03-31T01:26:41.046Z,31.98
2023-03-31T01:29:45.260Z,31.98
2023-03-31T01:32:36.681Z,31.98
2023-03-31T01:35:35.642Z,32.00
2023-03-31T01:38:19.516Z,32.00
2023-03-31T01:40:52.982Z,32.01
2023-03-31T01:43:39.630Z,31.99
2023-03-31T01:46:12.987Z,32.01
2023-03-31T01:49:10.624Z,32.00
2023-03-31T01:51:48.135Z,32.04
2023-03-31T01:54:46.569Z,32.03
2023-03-31T01:57:35.379Z,32.01
2023-03-31T02:00:08.165Z,32.05
2023-03-31T02:03:00.740Z,32.05
2023-03-31T02:05:39.114Z,32.05
2023-03-31T02:08:26.044Z,32.04
2023-03-31T02:10:57.736Z,32.04
2023-03-31T02:13:30.180Z,32.05
2023-03-31T02:16:08.301Z,32.08
2023-03-31T02:18:44.092Z,32.09
2023-03-31T02:21:17.209Z,32.10
2023-03-31T02:23:48.462Z,32.11
2023-03-31T02:26:25.590Z,32.10
2023-03-31T02:29:14.038Z,32.10
2023-03-31T02:31:50.096Z,32.10
2023-03-31T02:34:39.054Z,32.10
2023-03-31T02:37:09.667Z,32.12
2023-03-31T02:40:01.726Z,32.15
2023-03-31T02:42:32.037Z,32.12
2023-03-31T02:45:07.313Z,32.13
2023-03-31T02:47:37.849Z,32.13
2023-03-31T02:50:08.958Z,32.14
2023-03-31T02:53:26.501Z,32.16
2023-03-31T02:56:13.990Z,32.19
2023-03-31T02:58:50.445Z,32.20
2023-03-31T03:01:42.625Z,32.22
2023-03-31T03:05:14.505Z,32.24
2023-03-31T03:08:04.530Z,32.23
2023-03-31T03:10:53.304Z,32.24
2023-03-31T03:13:26.610Z,32.25
2023-03-31T03:16:29.730Z,32.25
2023-03-31T03:19:04.968Z,32.25
2023-03-31T03:21:35.921Z,32.27
2023-03-31T03:24:06.257Z,32.26
2023-03-31T03:26:37.549Z,32.25
2023-03-31T03:29:07.467Z,32.27
2023-03-31T03:31:37.633Z,32.24
2023-03-31T03:34:09.374Z,32.27
2023-03-31T03:36:41.349Z,32.26
2023-03-31T03:39:11.689Z,32.28
2023-03-31T03:42:00.526Z,32.28
2023-03-31T03:44:30.885Z,32.29
2023-03-31T03:47:01.168Z,32.30
2023-03-31T03:49:31.521Z,32.31
2023-03-31T03:52:20.001Z,32.31
2023-03-31T03:54:50.227Z,32.32
2023-03-31T03:57:38.975Z,32.32
2023-03-31T04:00:19.580Z,32.36
2023-03-31T04:02:49.796Z,32.37
2023-03-31T04:05:20.301Z,32.36
2023-03-31T04:07:50.955Z,32.37
2023-03-31T04:10:21.472Z,32.36
2023-03-31T04:12:51.665Z,32.37
2023-03-31T04:15:21.885Z,32.38
2023-03-31T04:17:53.360Z,32.36
2023-03-31T04:20:24.372Z,32.40
2023-03-31T04:22:54.782Z,32.42
2023-03-31T04:25:25.714Z,32.43
2023-03-31T04:28:17.066Z,32.45
2023-03-31T04:30:47.888Z,32.43
2023-03-31T04:33:19.751Z,32.45
2023-03-31T04:35:54.864Z,32.47
2023-03-31T04:38:29.518Z,32.46
2023-03-31T04:41:00.386Z,32.50
2023-03-31T04:43:30.650Z,32.47
2023-03-31T04:46:02.803Z,32.50
2023-03-31T04:48:33.235Z,32.51
2023-03-31T04:53:49.665Z,32.52
2023-03-31T04:56:20.364Z,32.52
2023-03-31T04:58:50.450Z,32.54
2023-03-31T05:01:23.466Z,32.53
2023-03-31T05:03:53.934Z,32.54
2023-03-31T05:06:24.025Z,32.53
2023-03-31T05:08:54.752Z,32.54
2023-03-31T05:11:25.428Z,32.52
2023-03-31T05:16:40.881Z,32.53
2023-03-31T05:19:10.996Z,32.53
2023-03-31T05:21:41.257Z,32.53
2023-03-31T05:24:11.776Z,32.54
2023-03-31T05:26:43.481Z,32.55
2023-03-31T05:31:58.964Z,32.57
2023-03-31T05:34:47.465Z,32.60
2023-03-31T05:37:17.920Z,32.60
2023-03-31T05:39:48.036Z,32.60
2023-03-31T05:42:18.486Z,32.63
2023-03-31T05:44:49.438Z,32.64
2023-03-31T05:47:20.597Z,32.64
2023-03-31T05:49:50.896Z,32.69
2023-03-31T05:52:21.578Z,32.68
2023-03-31T05:54:51.848Z,32.71
2023-03-31T05:57:22.088Z,32.72
2023-03-31T05:59:52.515Z,32.72
2023-03-31T06:02:22.805Z,32.73
2023-03-31T06:05:11.498Z,32.75
2023-03-31T06:07:41.801Z,32.76
2023-03-31T06:10:13.113Z,32.76
2023-03-31T06:13:01.836Z,32.78
2023-03-31T06:15:33.130Z,32.78
2023-03-31T06:18:03.428Z,32.77
2023-03-31T06:20:33.729Z,32.78
2023-03-31T06:23:04.049Z,32.80
2023-03-31T06:25:47.831Z,32.78
2023-03-31T06:28:21.590Z,32.78
2023-03-31T06:30:51.977Z,32.82
2023-03-31T06:33:22.313Z,32.83
2023-03-31T06:35:52.517Z,32.83
2023-03-31T06:38:22.793Z,32.86
2023-03-31T06:40:53.347Z,32.84
2023-03-31T06:43:23.669Z,32.88
2023-03-31T06:45:57.977Z,32.87
2023-03-31T06:48:29.142Z,32.91
2023-03-31T06:51:01.639Z,32.90
2023-03-31T06:53:32.776Z,32.90
2023-03-31T06:56:03.690Z,32.92
2023-03-31T06:58:34.322Z,32.92
2023-03-31T07:01:08.928Z,32.93
2023-03-31T07:03:39.699Z,32.93
2023-03-31T07:06:10.120Z,32.91
2023-03-31T07:08:58.459Z,32.92
2023-03-31T07:11:28.800Z,32.91
2023-03-31T07:13:58.878Z,32.93
2023-03-31T07:16:47.177Z,32.93
2023-03-31T07:19:17.949Z,32.94
2023-03-31T07:21:48.725Z,32.94
2023-03-31T07:24:37.178Z,32.97
2023-03-31T07:27:26.329Z,32.97
2023-03-31T07:30:19.003Z,32.99
2023-03-31T07:32:50.720Z,32.97
2023-03-31T07:35:22.019Z,33.00
2023-03-31T07:37:53.884Z,33.03
2023-03-31T07:40:31.862Z,33.01
2023-03-31T07:43:02.141Z,33.04
2023-03-31T07:45:32.843Z,33.06
2023-03-31T07:50:48.332Z,33.06
2023-03-31T07:53:25.614Z,33.04
2023-03-31T07:55:55.883Z,33.06
2023-03-31T07:58:26.200Z,33.05
2023-03-31T08:00:56.534Z,33.06
2023-03-31T08:03:28.093Z,33.07
2023-03-31T08:05:58.329Z,33.07
2023-03-31T08:08:29.014Z,33.10
2023-03-31T08:10:59.336Z,33.13
2023-03-31T08:13:29.677Z,33.13
2023-03-31T08:15:59.930Z,33.14
2023-03-31T08:18:30.373Z,33.16
2023-03-31T08:23:45.879Z,33.19
2023-03-31T08:26:21.565Z,33.18
2023-03-31T08:28:51.739Z,33.19
2023-03-31T08:31:25.324Z,33.20
2023-03-31T08:33:58.743Z,33.21
2023-03-31T08:36:29.589Z,33.21
2023-03-31T08:42:12.197Z,33.19
2023-03-31T08:45:13.782Z,33.18
2023-03-31T08:48:28.036Z,33.20
2023-03-31T08:51:19.026Z,33.20
2023-03-31T08:54:02.343Z,33.22
2023-03-31T08:56:41.560Z,33.22
2023-03-31T08:59:23.340Z,33.21
2023-03-31T09:01:58.676Z,33.24
2023-03-31T09:04:40.840Z,33.24
2023-03-31T09:07:37.258Z,33.25
2023-03-31T09:10:22.512Z,33.25
2023-03-31T09:13:00.729Z,33.27
2023-03-31T09:15:48.025Z,33.28
2023-03-31T09:18:25.286Z,33.30
2023-03-31T09:21:00.923Z,33.29
2023-03-31T09:23:49.595Z,33.27
2023-03-31T09:26:29.866Z,33.30
2023-03-31T09:29:02.110Z,33.26
2023-03-31T09:31:32.661Z,33.28
2023-03-31T09:34:31.334Z,33.28
2023-03-31T09:37:01.880Z,33.27
2023-03-31T09:39:50.135Z,33.27
2023-03-31T09:42:21.793Z,33.26
2023-03-31T09:44:52.711Z,33.27
2023-03-31T09:47:29.437Z,33.26
2023-03-31T09:49:59.832Z,33.27
2023-03-31T09:52:35.452Z,33.30
2023-03-31T09:55:10.949Z,33.30
2023-03-31T09:57:42.768Z,33.30
2023-03-31T10:00:18.828Z,33.32
2023-03-31T10:02:58.830Z,33.32
2023-03-31T10:05:29.074Z,33.31
2023-03-31T10:08:19.858Z,33.34
2023-03-31T10:10:52.451Z,33.33
2023-03-31T10:13:28.994Z,33.32
2023-03-31T10:19:28.357Z,33.30
2023-03-31T10:22:08.360Z,33.31
2023-03-31T10:24:46.769Z,33.30
2023-03-31T10:27:26.399Z,33.30
2023-03-31T10:30:02.360Z,33.31
2023-03-31T10:32:43.439Z,33.29
2023-03-31T10:35:37.049Z,33.32
2023-03-31T10:38:28.796Z,33.32
2023-03-31T10:41:03.758Z,33.31
2023-03-31T10:43:44.523Z,33.31
2023-03-31T10:46:15.218Z,33.32
2023-03-31T10:48:46.781Z,33.33
2023-03-31T10:51:28.729Z,33.30
2023-03-31T10:54:16.929Z,33.34
2023-03-31T10:57:08.722Z,33.32
2023-03-31T11:00:08.163Z,33.32
2023-03-31T11:03:11.996Z,33.31
2023-03-31T11:05:54.235Z,33.31
2023-03-31T11:08:27.381Z,33.30
2023-03-31T11:11:07.213Z,33.28
2023-03-31T11:14:21.220Z,33.29
2023-03-31T11:17:06.778Z,33.28
2023-03-31T11:20:09.206Z,33.29
2023-03-31T11:23:01.857Z,33.27
2023-03-31T11:25:39.718Z,33.27
2023-03-31T11:28:23.025Z,33.28
2023-03-31T11:31:20.125Z,33.28
2023-03-31T11:33:56.147Z,33.27
2023-03-31T11:36:39.145Z,33.27
2023-03-31T11:42:52.655Z,33.25
2023-03-31T11:45:30.529Z,33.25
2023-03-31T11:48:07.522Z,33.24
2023-03-31T11:50:43.432Z,33.23
2023-03-31T11:53:40.366Z,33.23
2023-03-31T13:44:08.797Z,32.55
2023-03-31T13:47:13.763Z,32.53
2023-03-31T13:50:03.502Z,32.50
2023-03-31T13:52:52.716Z,32.48
2023-03-31T13:55:28.705Z,32.45
2023-03-31T13:58:24.978Z,32.37
2023-03-31T14:01:25.152Z,32.28
2023-03-31T14:04:03.886Z,32.22
2023-03-31T14:06:40.098Z,32.20
2023-03-31T14:09:35.732Z,32.14
2023-03-31T14:12:24.368Z,32.14
2023-03-31T14:14:57.904Z,32.21
2023-03-31T14:17:36.294Z,32.17
2023-03-31T14:20:48.132Z,32.13
2023-03-31T14:24:06.030Z,32.11
2023-03-31T14:26:54.007Z,32.14
2023-03-31T14:29:36.136Z,32.19
2023-03-31T14:32:34.920Z,32.14
2023-03-31T14:35:29.410Z,32.11
2023-03-31T14:38:00.271Z,32.18
2023-03-31T14:40:30.657Z,32.23
2023-03-31T14:43:01.787Z,32.20
2023-03-31T14:45:34.196Z,32.16
2023-03-31T14:48:16.315Z,32.19
2023-03-31T14:50:49.397Z,32.17
2023-03-31T14:53:22.409Z,32.23
2023-03-31T14:55:58.557Z,32.12
2023-03-31T14:58:35.728Z,32.16
2023-03-31T15:01:09.473Z,32.14
2023-03-31T15:03:46.499Z,32.15
2023-03-31T15:06:18.357Z,32.11
2023-03-31T15:08:48.766Z,32.06
2023-03-31T15:11:23.180Z,32.11
2023-03-31T15:14:04.958Z,32.11
2023-03-31T15:16:47.310Z,32.07
2023-03-31T15:19:30.498Z,32.00
2023-03-31T15:22:11.484Z,32.28
2023-03-31T15:24:42.125Z,32.40
2023-03-31T15:27:38.523Z,32.33
2023-03-31T15:30:19.631Z,32.34
2023-03-31T15:32:50.064Z,32.34
2023-03-31T15:35:32.373Z,32.38
2023-03-31T15:38:05.299Z,32.40
2023-03-31T15:40:42.540Z,32.41
2023-03-31T15:43:34.408Z,32.38
2023-03-31T15:46:05.329Z,32.41
2023-03-31T15:48:38.081Z,32.61
2023-03-31T15:51:10.452Z,32.65
2023-03-31T15:53:53.338Z,32.68
2023-03-31T15:56:46.052Z,32.71
2023-03-31T15:59:34.260Z,32.66
2023-03-31T16:02:12.138Z,32.60
2023-03-31T16:04:43.107Z,32.56
2023-03-31T16:07:22.719Z,32.55
2023-03-31T16:10:22.215Z,32.53
2023-03-31T16:13:00.515Z,32.49
2023-03-31T16:15:45.368Z,32.51
2023-03-31T16:18:21.011Z,32.52
2023-03-31T16:20:59.470Z,32.52
2023-03-31T16:23:36.463Z,32.50
2023-03-31T16:26:07.311Z,32.49
2023-03-31T16:28:39.689Z,32.53
2023-03-31T16:31:36.690Z,32.51
2023-03-31T16:34:09.723Z,32.50
2023-03-31T16:36:40.528Z,32.47
2023-03-31T16:39:11.465Z,32.46
2023-03-31T16:41:41.797Z,32.45
2023-03-31T16:44:12.011Z,32.45
2023-03-31T16:46:42.408Z,32.44
2023-03-31T16:49:12.966Z,32.44
2023-03-31T16:51:43.772Z,32.44
2023-03-31T16:54:14.259Z,32.45
2023-03-31T16:56:44.512Z,32.44
2023-03-31T16:59:14.738Z,32.44
2023-03-31T17:01:45.056Z,32.45
2023-03-31T17:04:16.043Z,32.43
2023-03-31T17:06:46.578Z,32.43
2023-03-31T17:09:16.844Z,32.44
2023-03-31T17:11:46.951Z,32.44
2023-03-31T17:14:17.327Z,32.43
2023-03-31T17:16:48.730Z,32.42
2023-03-31T17:19:20.243Z,32.43
2023-03-31T17:21:50.477Z,32.40
2023-03-31T17:24:20.779Z,32.39
2023-03-31T17:26:50.869Z,32.39
2023-03-31T17:29:21.242Z,32.38
2023-03-31T17:31:51.504Z,32.35
2023-03-31T17:34:21.858Z,32.34
2023-03-31T17:36:53.873Z,32.32
2023-03-31T17:39:24.231Z,32.33
2023-03-31T17:41:54.594Z,32.32
2023-03-31T17:44:25.098Z,32.32
2023-03-31T17:46:55.507Z,32.33
2023-03-31T17:49:27.192Z,32.32
2023-03-31T17:51:57.698Z,32.32
2023-03-31T17:54:28.609Z,32.34
2023-03-31T17:56:58.895Z,32.32
2023-03-31T17:59:29.152Z,32.34
2023-03-31T18:02:17.900Z,32.34
2023-03-31T18:05:08.736Z,32.34
2023-03-31T18:07:40.403Z,32.34
2023-03-31T18:10:12.361Z,32.36
2023-03-31T18:12:43.602Z,32.32
2023-03-31T18:15:14.155Z,32.32
2023-03-31T18:17:45.688Z,32.32
2023-03-31T18:20:16.473Z,32.30
2023-03-31T18:22:46.758Z,32.31
2023-03-31T18:25:35.683Z,32.29
2023-03-31T18:28:06.237Z,32.28
2023-03-31T18:30:36.393Z,32.27
2023-03-31T18:33:06.887Z,32.29
2023-03-31T18:35:55.396Z,32.30
2023-03-31T18:38:25.614Z,32.27
2023-03-31T18:40:57.411Z,32.30
2023-03-31T18:43:30.110Z,32.27
2023-03-31T18:46:03.693Z,32.30
2023-03-31T18:48:34.411Z,32.28
2023-03-31T18:51:05.043Z,32.31
2023-03-31T18:53:53.576Z,32.29
2023-03-31T18:56:25.464Z,32.30
2023-03-31T18:58:56.296Z,32.29
2023-03-31T19:01:26.712Z,32.30
2023-03-31T19:03:57.942Z,32.28
2023-03-31T19:06:29.494Z,32.28
2023-03-31T19:09:00.049Z,32.26
2023-03-31T19:11:31.119Z,32.27
2023-03-31T19:14:01.485Z,32.24
2023-03-31T19:16:31.970Z,32.25
2023-03-31T19:19:02.041Z,32.24
2023-03-31T19:21:34.976Z,32.25
2023-03-31T19:24:05.189Z,32.24
2023-03-31T19:26:35.792Z,32.25
2023-03-31T19:29:07.684Z,32.22
2023-03-31T19:31:40.859Z,32.25
2023-03-31T19:34:13.926Z,32.24
2023-03-31T19:36:44.316Z,32.25
2023-03-31T19:39:14.629Z,32.24
2023-03-31T19:41:44.997Z,32.25
2023-03-31T19:44:15.455Z,32.22
2023-03-31T19:46:45.628Z,32.23
2023-03-31T19:49:15.948Z,32.21
2023-03-31T19:51:46.785Z,32.23
2023-03-31T19:54:16.873Z,32.19
2023-03-31T19:56:47.025Z,32.19
2023-03-31T19:59:17.307Z,32.19
2023-03-31T20:01:48.021Z,32.22
2023-03-31T20:04:20.353Z,32.19
2023-03-31T20:06:51.264Z,32.19
2023-03-31T20:09:21.353Z,32.16
2023-03-31T20:11:51.502Z,32.19
2023-03-31T20:14:21.929Z,32.18
2023-03-31T20:16:53.455Z,32.15
2023-03-31T20:19:25.603Z,32.16
2023-03-31T20:22:00.319Z,32.14
2023-03-31T20:24:30.678Z,32.16
2023-03-31T20:27:01.589Z,32.14
2023-03-31T20:29:32.548Z,32.14
2023-03-31T20:32:04.868Z,32.15
2023-03-31T20:34:36.850Z,32.16
2023-03-31T20:37:07.100Z,32.18
2023-03-31T20:39:37.451Z,32.16
2023-03-31T20:42:08.690Z,32.16
2023-03-31T20:44:39.434Z,32.16
2023-03-31T20:47:09.847Z,32.13
2023-03-31T20:49:40.292Z,32.15
2023-03-31T20:52:10.502Z,32.16
2023-03-31T20:54:41.012Z,32.19
2023-03-31T20:57:11.412Z,32.18
2023-03-31T20:59:42.194Z,32.16
2023-03-31T21:02:15.508Z,32.17
2023-03-31T21:04:45.803Z,32.18
2023-03-31T21:07:15.918Z,32.18
2023-03-31T21:09:46.267Z,32.19
2023-03-31T21:12:16.794Z,32.22
2023-03-31T21:14:47.776Z,32.19
2023-03-31T21:17:18.152Z,32.18
2023-03-31T21:19:48.221Z,32.20
2023-03-31T21:22:18.424Z,32.23
2023-03-31T21:24:48.760Z,32.21
2023-03-31T21:27:18.979Z,32.18
2023-03-31T21:29:49.148Z,32.17
2023-03-31T21:32:20.488Z,32.15
2023-03-31T21:34:50.702Z,32.14
2023-03-31T21:37:20.755Z,32.17
2023-03-31T21:39:51.063Z,32.16
2023-03-31T21:42:21.423Z,32.16
2023-03-31T21:44:51.691Z,32.17
2023-03-31T21:47:22.068Z,32.15
2023-03-31T21:49:52.114Z,32.15
2023-03-31T21:52:22.130Z,32.16
2023-03-31T21:54:52.243Z,32.14
2023-03-31T21:57:22.391Z,32.12
2023-03-31T21:59:52.727Z,32.13
2023-03-31T22:02:23.072Z,32.12
2023-03-31T22:04:53.330Z,32.15
2023-03-31T22:07:23.660Z,32.15
2023-03-31T22:09:53.874Z,32.12
2023-03-31T22:12:24.159Z,32.11
2023-03-31T22:14:54.530Z,32.12
2023-03-31T22:17:25.340Z,32.16
2023-03-31T22:19:55.560Z,32.11
2023-03-31T22:22:25.786Z,32.17
2023-03-31T22:24:56.034Z,32.19
2023-03-31T22:27:26.240Z,32.19
2023-03-31T22:29:56.331Z,32.15
2023-03-31T22:32:26.600Z,32.18
2023-03-31T22:34:56.909Z,32.16
2023-03-31T22:37:27.133Z,32.21
2023-03-31T22:39:57.389Z,32.17
2023-03-31T22:42:27.647Z,32.18
2023-03-31T22:44:57.890Z,32.12
2023-03-31T22:47:28.353Z,32.13
2023-03-31T22:49:58.632Z,32.11
2023-03-31T22:52:28.941Z,32.08
2023-03-31T22:54:59.695Z,32.07
2023-03-31T22:57:30.015Z,32.03
2023-03-31T23:00:00.165Z,32.04
2023-03-31T23:02:31.402Z,32.05
2023-03-31T23:05:02.091Z,32.04
2023-03-31T23:07:32.799Z,32.01
2023-03-31T23:10:03.156Z,32.00
2023-03-31T23:12:33.956Z,32.01
2023-03-31T23:15:04.335Z,32.00
2023-03-31T23:17:34.630Z,31.99
2023-03-31T23:20:04.967Z,32.04
2023-03-31T23:22:37.278Z,32.04
2023-03-31T23:25:09.219Z,32.02
2023-03-31T23:27:39.823Z,32.03
2023-03-31T23:30:10.783Z,32.07
2023-03-31T23:32:41.052Z,32.12
2023-03-31T23:35:11.566Z,32.14
2023-03-31T23:37:41.894Z,32.17
2023-03-31T23:40:12.418Z,32.22
2023-03-31T23:42:43.141Z,32.16
2023-03-31T23:45:13.772Z,32.13
2023-03-31T23:47:44.820Z,32.10
2023-03-31T23:50:15.045Z,32.19
2023-03-31T23:52:45.289Z,32.24
2023-03-31T23:55:16.293Z,32.25
2023-03-31T23:57:46.459Z,32.31
